sensor_id;sensor_type;location;lat;lon;timestamp;P1;durP1;ratioP1;P2;durP2;ratioP2
57635;SDS011;43465;50.728;4.160;2023-08-01T00:00:05;5.10;;;2.80;;
57635;SDS011;43465;50.728;4.160;2023-08-01T00:02:33;7.88;;;2.67;;
57635;SDS011;43465;50.728;4.160;2023-08-01T00:04:59;4.60;;;2.55;;
57635;SDS011;43465;50.728;4.160;2023-08-01T00:07:26;4.97;;;2.55;;
57635;SDS011;43465;50.728;4.160;2023-08-01T00:09:52;5.38;;;2.60;;
57635;SDS011;43465;50.728;4.160;2023-08-01T00:12:18;4.85;;;2.30;;
57635;SDS011;43465;50.728;4.160;2023-08-01T00:14:44;5.68;;;2.10;;
57635;SDS011;43465;50.728;4.160;2023-08-01T00:17:09;5.38;;;2.42;;
57635;SDS011;43465;50.728;4.160;2023-08-01T00:19:35;7.28;;;2.33;;
57635;SDS011;43465;50.728;4.160;2023-08-01T00:22:01;3.33;;;2.30;;
57635;SDS011;43465;50.728;4.160;2023-08-01T00:24:26;5.22;;;2.20;;
57635;SDS011;43465;50.728;4.160;2023-08-01T00:26:52;4.80;;;2.25;;
57635;SDS011;43465;50.728;4.160;2023-08-01T00:29:20;5.93;;;2.10;;
57635;SDS011;43465;50.728;4.160;2023-08-01T00:31:46;5.40;;;2.17;;
57635;SDS011;43465;50.728;4.160;2023-08-01T00:34:12;5.72;;;2.20;;
57635;SDS011;43465;50.728;4.160;2023-08-01T00:36:37;2.60;;;1.83;;
57635;SDS011;43465;50.728;4.160;2023-08-01T00:39:03;5.28;;;2.10;;
57635;SDS011;43465;50.728;4.160;2023-08-01T00:41:29;4.90;;;2.40;;
57635;SDS011;43465;50.728;4.160;2023-08-01T00:43:54;7.72;;;2.70;;
57635;SDS011;43465;50.728;4.160;2023-08-01T00:46:20;5.38;;;2.83;;
57635;SDS011;43465;50.728;4.160;2023-08-01T00:48:46;3.20;;;2.30;;
57635;SDS011;43465;50.728;4.160;2023-08-01T00:51:12;5.05;;;2.67;;
57635;SDS011;43465;50.728;4.160;2023-08-01T00:53:38;4.20;;;2.78;;
57635;SDS011;43465;50.728;4.160;2023-08-01T00:56:04;6.15;;;2.80;;
57635;SDS011;43465;50.728;4.160;2023-08-01T00:58:30;7.60;;;3.35;;
57635;SDS011;43465;50.728;4.160;2023-08-01T01:00:56;3.85;;;3.08;;
57635;SDS011;43465;50.728;4.160;2023-08-01T01:03:22;7.72;;;3.08;;
57635;SDS011;43465;50.728;4.160;2023-08-01T01:05:53;4.72;;;2.97;;
57635;SDS011;43465;50.728;4.160;2023-08-01T01:08:22;6.47;;;2.92;;
57635;SDS011;43465;50.728;4.160;2023-08-01T01:10:48;6.78;;;3.13;;
57635;SDS011;43465;50.728;4.160;2023-08-01T01:13:14;7.75;;;3.22;;
57635;SDS011;43465;50.728;4.160;2023-08-01T01:15:39;5.90;;;3.17;;
57635;SDS011;43465;50.728;4.160;2023-08-01T01:18:05;6.53;;;3.05;;
57635;SDS011;43465;50.728;4.160;2023-08-01T01:20:34;9.70;;;3.10;;
57635;SDS011;43465;50.728;4.160;2023-08-01T01:23:00;4.10;;;3.03;;
57635;SDS011;43465;50.728;4.160;2023-08-01T01:25:28;8.57;;;3.85;;
57635;SDS011;43465;50.728;4.160;2023-08-01T01:27:56;9.80;;;3.60;;
57635;SDS011;43465;50.728;4.160;2023-08-01T01:30:23;9.90;;;3.55;;
57635;SDS011;43465;50.728;4.160;2023-08-01T01:32:49;8.77;;;3.53;;
57635;SDS011;43465;50.728;4.160;2023-08-01T01:35:15;12.30;;;4.00;;
57635;SDS011;43465;50.728;4.160;2023-08-01T01:37:41;7.45;;;3.75;;
57635;SDS011;43465;50.728;4.160;2023-08-01T01:40:06;10.90;;;4.82;;
57635;SDS011;43465;50.728;4.160;2023-08-01T01:42:32;5.93;;;3.95;;
57635;SDS011;43465;50.728;4.160;2023-08-01T01:44:58;8.95;;;4.30;;
57635;SDS011;43465;50.728;4.160;2023-08-01T01:47:24;10.25;;;4.80;;
57635;SDS011;43465;50.728;4.160;2023-08-01T01:49:49;14.00;;;4.70;;
57635;SDS011;43465;50.728;4.160;2023-08-01T01:52:15;8.98;;;4.57;;
57635;SDS011;43465;50.728;4.160;2023-08-01T01:54:40;13.25;;;5.18;;
57635;SDS011;43465;50.728;4.160;2023-08-01T01:57:06;10.55;;;4.70;;
57635;SDS011;43465;50.728;4.160;2023-08-01T01:59:32;10.55;;;5.20;;
57635;SDS011;43465;50.728;4.160;2023-08-01T02:01:57;8.93;;;5.00;;
57635;SDS011;43465;50.728;4.160;2023-08-01T02:04:24;10.60;;;4.82;;
57635;SDS011;43465;50.728;4.160;2023-08-01T02:06:50;14.20;;;5.30;;
57635;SDS011;43465;50.728;4.160;2023-08-01T02:09:18;12.82;;;5.22;;
57635;SDS011;43465;50.728;4.160;2023-08-01T02:11:44;10.70;;;5.05;;
57635;SDS011;43465;50.728;4.160;2023-08-01T02:14:09;10.00;;;5.07;;
57635;SDS011;43465;50.728;4.160;2023-08-01T02:16:35;16.35;;;5.80;;
57635;SDS011;43465;50.728;4.160;2023-08-01T02:19:00;11.32;;;5.38;;
57635;SDS011;43465;50.728;4.160;2023-08-01T02:21:26;12.65;;;5.40;;
57635;SDS011;43465;50.728;4.160;2023-08-01T02:23:52;10.10;;;5.38;;
57635;SDS011;43465;50.728;4.160;2023-08-01T02:26:17;10.35;;;5.60;;
57635;SDS011;43465;50.728;4.160;2023-08-01T02:28:43;13.05;;;6.28;;
57635;SDS011;43465;50.728;4.160;2023-08-01T02:31:09;12.60;;;5.45;;
57635;SDS011;43465;50.728;4.160;2023-08-01T02:33:36;17.55;;;6.38;;
57635;SDS011;43465;50.728;4.160;2023-08-01T02:36:01;14.95;;;6.50;;
57635;SDS011;43465;50.728;4.160;2023-08-01T02:38:27;16.20;;;6.28;;
57635;SDS011;43465;50.728;4.160;2023-08-01T02:40:52;11.50;;;5.88;;
57635;SDS011;43465;50.728;4.160;2023-08-01T02:43:18;12.80;;;6.47;;
57635;SDS011;43465;50.728;4.160;2023-08-01T02:45:44;11.40;;;5.90;;
57635;SDS011;43465;50.728;4.160;2023-08-01T02:48:10;12.15;;;5.95;;
57635;SDS011;43465;50.728;4.160;2023-08-01T02:50:36;17.52;;;6.50;;
57635;SDS011;43465;50.728;4.160;2023-08-01T02:53:02;13.82;;;6.50;;
57635;SDS011;43465;50.728;4.160;2023-08-01T02:55:27;12.00;;;5.72;;
57635;SDS011;43465;50.728;4.160;2023-08-01T02:57:53;13.80;;;5.95;;
57635;SDS011;43465;50.728;4.160;2023-08-01T03:00:18;11.65;;;6.00;;
57635;SDS011;43465;50.728;4.160;2023-08-01T03:02:44;13.52;;;5.68;;
57635;SDS011;43465;50.728;4.160;2023-08-01T03:05:10;17.58;;;5.72;;
57635;SDS011;43465;50.728;4.160;2023-08-01T03:07:35;15.15;;;6.25;;
57635;SDS011;43465;50.728;4.160;2023-08-01T03:10:01;17.83;;;6.30;;
57635;SDS011;43465;50.728;4.160;2023-08-01T03:12:27;18.25;;;6.43;;
57635;SDS011;43465;50.728;4.160;2023-08-01T03:14:53;16.63;;;6.43;;
57635;SDS011;43465;50.728;4.160;2023-08-01T03:17:18;11.70;;;5.85;;
57635;SDS011;43465;50.728;4.160;2023-08-01T03:19:44;14.25;;;6.10;;
57635;SDS011;43465;50.728;4.160;2023-08-01T03:22:10;17.50;;;6.57;;
57635;SDS011;43465;50.728;4.160;2023-08-01T03:24:35;13.48;;;6.18;;
57635;SDS011;43465;50.728;4.160;2023-08-01T03:27:01;19.23;;;6.05;;
57635;SDS011;43465;50.728;4.160;2023-08-01T03:29:28;17.10;;;6.30;;
57635;SDS011;43465;50.728;4.160;2023-08-01T03:31:53;18.25;;;6.70;;
57635;SDS011;43465;50.728;4.160;2023-08-01T03:34:19;14.43;;;6.35;;
57635;SDS011;43465;50.728;4.160;2023-08-01T03:36:45;16.77;;;6.88;;
57635;SDS011;43465;50.728;4.160;2023-08-01T03:39:10;17.25;;;7.22;;
57635;SDS011;43465;50.728;4.160;2023-08-01T03:41:36;20.70;;;7.82;;
57635;SDS011;43465;50.728;4.160;2023-08-01T03:44:03;17.70;;;7.07;;
57635;SDS011;43465;50.728;4.160;2023-08-01T03:46:29;22.75;;;7.50;;
57635;SDS011;43465;50.728;4.160;2023-08-01T03:48:54;18.58;;;7.78;;
57635;SDS011;43465;50.728;4.160;2023-08-01T03:51:20;25.77;;;8.18;;
57635;SDS011;43465;50.728;4.160;2023-08-01T03:53:46;19.58;;;7.78;;
57635;SDS011;43465;50.728;4.160;2023-08-01T03:56:12;19.02;;;7.72;;
57635;SDS011;43465;50.728;4.160;2023-08-01T03:58:38;20.13;;;7.80;;
57635;SDS011;43465;50.728;4.160;2023-08-01T04:01:04;19.85;;;8.07;;
57635;SDS011;43465;50.728;4.160;2023-08-01T04:03:31;18.85;;;7.93;;
57635;SDS011;43465;50.728;4.160;2023-08-01T04:05:57;13.60;;;7.47;;
57635;SDS011;43465;50.728;4.160;2023-08-01T04:08:23;19.13;;;7.55;;
57635;SDS011;43465;50.728;4.160;2023-08-01T04:10:48;15.55;;;7.18;;
57635;SDS011;43465;50.728;4.160;2023-08-01T04:13:15;17.55;;;7.30;;
57635;SDS011;43465;50.728;4.160;2023-08-01T04:15:41;14.98;;;6.97;;
57635;SDS011;43465;50.728;4.160;2023-08-01T04:18:06;17.85;;;7.07;;
57635;SDS011;43465;50.728;4.160;2023-08-01T04:20:32;21.17;;;7.57;;
57635;SDS011;43465;50.728;4.160;2023-08-01T04:22:58;16.00;;;6.78;;
57635;SDS011;43465;50.728;4.160;2023-08-01T04:25:24;19.58;;;7.45;;
57635;SDS011;43465;50.728;4.160;2023-08-01T04:27:51;17.15;;;6.80;;
57635;SDS011;43465;50.728;4.160;2023-08-01T04:30:17;17.23;;;6.60;;
57635;SDS011;43465;50.728;4.160;2023-08-01T04:32:43;19.20;;;7.25;;
57635;SDS011;43465;50.728;4.160;2023-08-01T04:35:09;14.45;;;7.00;;
57635;SDS011;43465;50.728;4.160;2023-08-01T04:37:34;20.60;;;7.20;;
57635;SDS011;43465;50.728;4.160;2023-08-01T04:40:00;14.10;;;6.80;;
57635;SDS011;43465;50.728;4.160;2023-08-01T04:42:26;17.55;;;7.32;;
57635;SDS011;43465;50.728;4.160;2023-08-01T04:44:52;18.67;;;6.88;;
57635;SDS011;43465;50.728;4.160;2023-08-01T04:47:18;16.52;;;6.60;;
57635;SDS011;43465;50.728;4.160;2023-08-01T04:49:44;19.23;;;6.85;;
57635;SDS011;43465;50.728;4.160;2023-08-01T04:52:10;18.40;;;6.95;;
57635;SDS011;43465;50.728;4.160;2023-08-01T04:54:35;14.55;;;7.05;;
57635;SDS011;43465;50.728;4.160;2023-08-01T04:57:01;17.17;;;6.90;;
57635;SDS011;43465;50.728;4.160;2023-08-01T04:59:27;21.63;;;7.20;;
57635;SDS011;43465;50.728;4.160;2023-08-01T05:01:52;12.65;;;6.53;;
57635;SDS011;43465;50.728;4.160;2023-08-01T05:04:18;20.42;;;6.85;;
57635;SDS011;43465;50.728;4.160;2023-08-01T05:06:43;18.85;;;6.90;;
57635;SDS011;43465;50.728;4.160;2023-08-01T05:09:09;16.70;;;6.78;;
57635;SDS011;43465;50.728;4.160;2023-08-01T05:11:35;19.20;;;7.13;;
57635;SDS011;43465;50.728;4.160;2023-08-01T05:14:00;16.08;;;7.40;;
57635;SDS011;43465;50.728;4.160;2023-08-01T05:16:26;18.00;;;7.13;;
57635;SDS011;43465;50.728;4.160;2023-08-01T05:18:51;19.13;;;6.93;;
57635;SDS011;43465;50.728;4.160;2023-08-01T05:21:17;18.20;;;7.70;;
57635;SDS011;43465;50.728;4.160;2023-08-01T05:23:43;21.42;;;7.55;;
57635;SDS011;43465;50.728;4.160;2023-08-01T05:26:08;20.95;;;7.47;;
57635;SDS011;43465;50.728;4.160;2023-08-01T05:28:34;19.08;;;6.88;;
57635;SDS011;43465;50.728;4.160;2023-08-01T05:30:59;16.52;;;6.50;;
57635;SDS011;43465;50.728;4.160;2023-08-01T05:33:25;16.35;;;6.95;;
57635;SDS011;43465;50.728;4.160;2023-08-01T05:35:50;18.75;;;6.78;;
57635;SDS011;43465;50.728;4.160;2023-08-01T05:38:16;16.83;;;6.68;;
57635;SDS011;43465;50.728;4.160;2023-08-01T05:40:42;17.05;;;7.15;;
57635;SDS011;43465;50.728;4.160;2023-08-01T05:43:07;20.33;;;7.18;;
57635;SDS011;43465;50.728;4.160;2023-08-01T05:45:34;15.90;;;6.07;;
57635;SDS011;43465;50.728;4.160;2023-08-01T05:48:00;19.60;;;6.90;;
57635;SDS011;43465;50.728;4.160;2023-08-01T05:50:26;17.95;;;6.30;;
57635;SDS011;43465;50.728;4.160;2023-08-01T05:52:52;13.23;;;6.40;;
57635;SDS011;43465;50.728;4.160;2023-08-01T05:55:18;15.50;;;6.50;;
57635;SDS011;43465;50.728;4.160;2023-08-01T05:57:43;18.17;;;6.55;;
57635;SDS011;43465;50.728;4.160;2023-08-01T06:00:09;15.10;;;6.75;;
57635;SDS011;43465;50.728;4.160;2023-08-01T06:02:36;21.77;;;6.65;;
57635;SDS011;43465;50.728;4.160;2023-08-01T06:05:02;12.73;;;5.97;;
57635;SDS011;43465;50.728;4.160;2023-08-01T06:07:28;19.27;;;6.22;;
57635;SDS011;43465;50.728;4.160;2023-08-01T06:09:54;21.77;;;5.95;;
57635;SDS011;43465;50.728;4.160;2023-08-01T06:12:20;17.73;;;5.90;;
57635;SDS011;43465;50.728;4.160;2023-08-01T06:14:46;17.13;;;6.50;;
57635;SDS011;43465;50.728;4.160;2023-08-01T06:17:13;18.13;;;6.20;;
57635;SDS011;43465;50.728;4.160;2023-08-01T06:19:39;15.88;;;6.00;;
57635;SDS011;43465;50.728;4.160;2023-08-01T06:22:04;16.75;;;6.60;;
57635;SDS011;43465;50.728;4.160;2023-08-01T06:24:30;14.18;;;5.88;;
57635;SDS011;43465;50.728;4.160;2023-08-01T06:26:56;13.73;;;5.65;;
57635;SDS011;43465;50.728;4.160;2023-08-01T06:29:21;14.25;;;5.85;;
57635;SDS011;43465;50.728;4.160;2023-08-01T06:31:48;17.23;;;6.55;;
57635;SDS011;43465;50.728;4.160;2023-08-01T06:34:13;18.02;;;5.60;;
57635;SDS011;43465;50.728;4.160;2023-08-01T06:36:39;11.85;;;5.10;;
57635;SDS011;43465;50.728;4.160;2023-08-01T06:39:04;15.50;;;5.95;;
57635;SDS011;43465;50.728;4.160;2023-08-01T06:41:30;21.25;;;6.55;;
57635;SDS011;43465;50.728;4.160;2023-08-01T06:43:57;19.88;;;6.18;;
57635;SDS011;43465;50.728;4.160;2023-08-01T06:46:22;14.38;;;5.40;;
57635;SDS011;43465;50.728;4.160;2023-08-01T06:48:48;16.08;;;6.15;;
57635;SDS011;43465;50.728;4.160;2023-08-01T06:51:14;17.00;;;5.28;;
57635;SDS011;43465;50.728;4.160;2023-08-01T06:53:39;14.75;;;5.90;;
57635;SDS011;43465;50.728;4.160;2023-08-01T06:56:05;12.27;;;5.63;;
57635;SDS011;43465;50.728;4.160;2023-08-01T06:58:30;17.75;;;6.00;;
57635;SDS011;43465;50.728;4.160;2023-08-01T07:00:56;15.68;;;5.85;;
57635;SDS011;43465;50.728;4.160;2023-08-01T07:03:22;13.77;;;5.85;;
57635;SDS011;43465;50.728;4.160;2023-08-01T07:05:48;16.38;;;6.22;;
57635;SDS011;43465;50.728;4.160;2023-08-01T07:08:13;17.48;;;5.97;;
57635;SDS011;43465;50.728;4.160;2023-08-01T07:10:39;14.88;;;5.65;;
57635;SDS011;43465;50.728;4.160;2023-08-01T07:13:04;15.70;;;5.93;;
57635;SDS011;43465;50.728;4.160;2023-08-01T07:15:31;15.40;;;5.93;;
57635;SDS011;43465;50.728;4.160;2023-08-01T07:17:57;15.40;;;5.70;;
57635;SDS011;43465;50.728;4.160;2023-08-01T07:20:22;16.55;;;5.70;;
57635;SDS011;43465;50.728;4.160;2023-08-01T07:22:48;21.80;;;5.95;;
57635;SDS011;43465;50.728;4.160;2023-08-01T07:25:14;13.73;;;5.82;;
57635;SDS011;43465;50.728;4.160;2023-08-01T07:27:41;15.60;;;5.47;;
57635;SDS011;43465;50.728;4.160;2023-08-01T07:30:07;15.52;;;5.63;;
57635;SDS011;43465;50.728;4.160;2023-08-01T07:32:33;14.55;;;5.68;;
57635;SDS011;43465;50.728;4.160;2023-08-01T07:34:58;17.08;;;5.97;;
57635;SDS011;43465;50.728;4.160;2023-08-01T07:37:24;20.58;;;5.65;;
57635;SDS011;43465;50.728;4.160;2023-08-01T07:39:50;17.17;;;5.75;;
57635;SDS011;43465;50.728;4.160;2023-08-01T07:42:15;15.07;;;4.88;;
57635;SDS011;43465;50.728;4.160;2023-08-01T07:44:41;13.27;;;5.22;;
57635;SDS011;43465;50.728;4.160;2023-08-01T07:47:06;14.93;;;5.68;;
57635;SDS011;43465;50.728;4.160;2023-08-01T07:49:33;13.88;;;5.90;;
57635;SDS011;43465;50.728;4.160;2023-08-01T07:51:58;15.82;;;5.00;;
57635;SDS011;43465;50.728;4.160;2023-08-01T07:54:24;15.38;;;5.03;;
57635;SDS011;43465;50.728;4.160;2023-08-01T07:56:50;17.38;;;4.78;;
57635;SDS011;43465;50.728;4.160;2023-08-01T07:59:15;19.65;;;5.65;;
57635;SDS011;43465;50.728;4.160;2023-08-01T08:01:41;15.70;;;5.18;;
57635;SDS011;43465;50.728;4.160;2023-08-01T08:04:07;13.50;;;5.03;;
57635;SDS011;43465;50.728;4.160;2023-08-01T08:06:33;15.80;;;5.10;;
57635;SDS011;43465;50.728;4.160;2023-08-01T08:08:58;9.52;;;4.38;;
57635;SDS011;43465;50.728;4.160;2023-08-01T08:11:24;13.73;;;5.10;;
57635;SDS011;43465;50.728;4.160;2023-08-01T08:13:49;15.35;;;5.22;;
57635;SDS011;43465;50.728;4.160;2023-08-01T08:16:15;12.45;;;5.20;;
57635;SDS011;43465;50.728;4.160;2023-08-01T08:18:41;13.10;;;5.47;;
57635;SDS011;43465;50.728;4.160;2023-08-01T08:21:07;14.77;;;5.80;;
57635;SDS011;43465;50.728;4.160;2023-08-01T08:23:32;19.20;;;5.55;;
57635;SDS011;43465;50.728;4.160;2023-08-01T08:25:58;13.48;;;4.35;;
57635;SDS011;43465;50.728;4.160;2023-08-01T08:28:31;15.75;;;5.63;;
57635;SDS011;43465;50.728;4.160;2023-08-01T08:30:58;11.48;;;4.90;;
57635;SDS011;43465;50.728;4.160;2023-08-01T08:33:24;12.40;;;4.78;;
57635;SDS011;43465;50.728;4.160;2023-08-01T08:35:50;13.40;;;5.22;;
57635;SDS011;43465;50.728;4.160;2023-08-01T08:38:16;13.85;;;4.40;;
57635;SDS011;43465;50.728;4.160;2023-08-01T08:40:47;17.80;;;4.28;;
57635;SDS011;43465;50.728;4.160;2023-08-01T08:43:34;11.48;;;4.10;;
57635;SDS011;43465;50.728;4.160;2023-08-01T08:46:01;9.02;;;3.78;;
57635;SDS011;43465;50.728;4.160;2023-08-01T08:48:29;10.98;;;4.13;;
57635;SDS011;43465;50.728;4.160;2023-08-01T08:50:58;12.73;;;3.45;;
57635;SDS011;43465;50.728;4.160;2023-08-01T08:53:25;8.90;;;3.20;;
57635;SDS011;43465;50.728;4.160;2023-08-01T08:55:51;10.05;;;3.40;;
57635;SDS011;43465;50.728;4.160;2023-08-01T08:58:17;15.30;;;3.70;;
57635;SDS011;43465;50.728;4.160;2023-08-01T09:00:43;12.73;;;3.80;;
57635;SDS011;43465;50.728;4.160;2023-08-01T09:03:09;13.15;;;3.80;;
57635;SDS011;43465;50.728;4.160;2023-08-01T09:05:40;13.23;;;4.05;;
57635;SDS011;43465;50.728;4.160;2023-08-01T09:08:18;7.07;;;3.17;;
57635;SDS011;43465;50.728;4.160;2023-08-01T09:10:46;10.68;;;3.20;;
57635;SDS011;43465;50.728;4.160;2023-08-01T09:13:12;15.32;;;3.70;;
57635;SDS011;43465;50.728;4.160;2023-08-01T09:15:38;8.95;;;2.88;;
57635;SDS011;43465;50.728;4.160;2023-08-01T09:18:08;9.05;;;3.10;;
57635;SDS011;43465;50.728;4.160;2023-08-01T09:20:46;8.00;;;3.25;;
57635;SDS011;43465;50.728;4.160;2023-08-01T09:23:13;9.00;;;2.97;;
57635;SDS011;43465;50.728;4.160;2023-08-01T09:25:40;10.45;;;3.20;;
57635;SDS011;43465;50.728;4.160;2023-08-01T09:30:45;10.00;;;2.78;;
57635;SDS011;43465;50.728;4.160;2023-08-01T09:33:11;8.15;;;2.70;;
57635;SDS011;43465;50.728;4.160;2023-08-01T09:35:40;6.95;;;3.10;;
57635;SDS011;43465;50.728;4.160;2023-08-01T09:38:06;8.27;;;2.90;;
57635;SDS011;43465;50.728;4.160;2023-08-01T09:40:38;8.10;;;2.90;;
57635;SDS011;43465;50.728;4.160;2023-08-01T09:43:05;7.18;;;2.83;;
57635;SDS011;43465;50.728;4.160;2023-08-01T09:45:30;11.15;;;3.25;;
57635;SDS011;43465;50.728;4.160;2023-08-01T09:47:56;10.60;;;3.00;;
57635;SDS011;43465;50.728;4.160;2023-08-01T09:50:22;8.80;;;3.15;;
57635;SDS011;43465;50.728;4.160;2023-08-01T09:52:49;6.30;;;2.53;;
57635;SDS011;43465;50.728;4.160;2023-08-01T09:57:56;8.20;;;3.17;;
57635;SDS011;43465;50.728;4.160;2023-08-01T10:00:24;12.23;;;3.30;;
57635;SDS011;43465;50.728;4.160;2023-08-01T10:02:52;12.35;;;3.05;;
57635;SDS011;43465;50.728;4.160;2023-08-01T10:05:18;6.90;;;2.67;;
57635;SDS011;43465;50.728;4.160;2023-08-01T10:07:45;9.85;;;3.05;;
57635;SDS011;43465;50.728;4.160;2023-08-01T10:10:13;9.43;;;2.53;;
57635;SDS011;43465;50.728;4.160;2023-08-01T10:12:43;8.40;;;3.10;;
57635;SDS011;43465;50.728;4.160;2023-08-01T10:15:13;8.23;;;3.10;;
57635;SDS011;43465;50.728;4.160;2023-08-01T10:17:39;7.35;;;2.65;;
57635;SDS011;43465;50.728;4.160;2023-08-01T10:20:06;10.00;;;2.70;;
57635;SDS011;43465;50.728;4.160;2023-08-01T10:22:32;6.95;;;2.42;;
57635;SDS011;43465;50.728;4.160;2023-08-01T10:24:58;7.72;;;2.50;;
57635;SDS011;43465;50.728;4.160;2023-08-01T10:27:25;7.95;;;2.70;;
57635;SDS011;43465;50.728;4.160;2023-08-01T10:30:00;9.48;;;2.60;;
57635;SDS011;43465;50.728;4.160;2023-08-01T10:32:34;7.10;;;2.50;;
57635;SDS011;43465;50.728;4.160;2023-08-01T10:35:04;8.05;;;2.55;;
57635;SDS011;43465;50.728;4.160;2023-08-01T10:37:43;6.60;;;2.22;;
57635;SDS011;43465;50.728;4.160;2023-08-01T10:40:12;9.27;;;2.33;;
57635;SDS011;43465;50.728;4.160;2023-08-01T10:42:42;5.28;;;2.00;;
57635;SDS011;43465;50.728;4.160;2023-08-01T10:45:21;6.10;;;1.90;;
57635;SDS011;43465;50.728;4.160;2023-08-01T10:47:48;6.95;;;1.90;;
57635;SDS011;43465;50.728;4.160;2023-08-01T10:50:15;7.30;;;1.95;;
57635;SDS011;43465;50.728;4.160;2023-08-01T10:52:41;6.78;;;2.08;;
57635;SDS011;43465;50.728;4.160;2023-08-01T10:55:07;6.88;;;1.98;;
57635;SDS011;43465;50.728;4.160;2023-08-01T10:57:37;5.15;;;1.70;;
57635;SDS011;43465;50.728;4.160;2023-08-01T11:00:05;5.03;;;1.90;;
57635;SDS011;43465;50.728;4.160;2023-08-01T11:02:37;4.53;;;1.90;;
57635;SDS011;43465;50.728;4.160;2023-08-01T11:05:04;4.60;;;2.20;;
57635;SDS011;43465;50.728;4.160;2023-08-01T11:07:30;5.07;;;2.03;;
57635;SDS011;43465;50.728;4.160;2023-08-01T11:12:35;5.30;;;2.15;;
57635;SDS011;43465;50.728;4.160;2023-08-01T11:17:32;5.70;;;2.38;;
57635;SDS011;43465;50.728;4.160;2023-08-01T11:20:02;9.43;;;2.30;;
57635;SDS011;43465;50.728;4.160;2023-08-01T11:22:29;9.85;;;2.63;;
57635;SDS011;43465;50.728;4.160;2023-08-01T11:24:55;5.57;;;2.00;;
57635;SDS011;43465;50.728;4.160;2023-08-01T11:27:21;7.03;;;2.20;;
57635;SDS011;43465;50.728;4.160;2023-08-01T11:29:47;9.00;;;2.20;;
57635;SDS011;43465;50.728;4.160;2023-08-01T11:32:12;7.70;;;2.35;;
57635;SDS011;43465;50.728;4.160;2023-08-01T11:34:42;4.05;;;1.83;;
57635;SDS011;43465;50.728;4.160;2023-08-01T11:37:09;9.57;;;2.10;;
57635;SDS011;43465;50.728;4.160;2023-08-01T11:39:35;5.70;;;1.88;;
57635;SDS011;43465;50.728;4.160;2023-08-01T11:42:01;4.55;;;1.70;;
57635;SDS011;43465;50.728;4.160;2023-08-01T11:44:28;7.55;;;1.95;;
57635;SDS011;43465;50.728;4.160;2023-08-01T11:46:54;9.23;;;2.30;;
57635;SDS011;43465;50.728;4.160;2023-08-01T11:49:21;5.38;;;2.00;;
57635;SDS011;43465;50.728;4.160;2023-08-01T11:51:47;5.53;;;1.95;;
57635;SDS011;43465;50.728;4.160;2023-08-01T11:54:13;5.22;;;1.90;;
57635;SDS011;43465;50.728;4.160;2023-08-01T11:56:40;3.30;;;1.80;;
57635;SDS011;43465;50.728;4.160;2023-08-01T11:59:10;5.88;;;2.05;;
57635;SDS011;43465;50.728;4.160;2023-08-01T12:01:41;5.97;;;1.73;;
57635;SDS011;43465;50.728;4.160;2023-08-01T12:04:11;4.63;;;1.70;;
57635;SDS011;43465;50.728;4.160;2023-08-01T12:06:37;4.57;;;1.75;;
57635;SDS011;43465;50.728;4.160;2023-08-01T12:09:11;9.43;;;1.70;;
57635;SDS011;43465;50.728;4.160;2023-08-01T12:11:38;4.43;;;1.60;;
57635;SDS011;43465;50.728;4.160;2023-08-01T12:14:10;5.68;;;1.80;;
57635;SDS011;43465;50.728;4.160;2023-08-01T12:16:40;5.35;;;1.80;;
57635;SDS011;43465;50.728;4.160;2023-08-01T12:19:09;4.03;;;1.55;;
57635;SDS011;43465;50.728;4.160;2023-08-01T12:21:35;6.50;;;2.40;;
57635;SDS011;43465;50.728;4.160;2023-08-01T12:24:01;5.35;;;2.28;;
57635;SDS011;43465;50.728;4.160;2023-08-01T12:26:27;9.30;;;1.80;;
57635;SDS011;43465;50.728;4.160;2023-08-01T12:28:53;6.35;;;1.60;;
57635;SDS011;43465;50.728;4.160;2023-08-01T12:31:19;4.40;;;1.85;;
57635;SDS011;43465;50.728;4.160;2023-08-01T12:33:46;4.03;;;1.60;;
57635;SDS011;43465;50.728;4.160;2023-08-01T12:36:12;2.95;;;1.60;;
57635;SDS011;43465;50.728;4.160;2023-08-01T12:38:38;4.20;;;2.00;;
57635;SDS011;43465;50.728;4.160;2023-08-01T12:41:04;3.88;;;1.80;;
57635;SDS011;43465;50.728;4.160;2023-08-01T12:43:30;5.47;;;2.30;;
57635;SDS011;43465;50.728;4.160;2023-08-01T12:45:56;6.97;;;2.15;;
57635;SDS011;43465;50.728;4.160;2023-08-01T12:48:23;3.63;;;1.90;;
57635;SDS011;43465;50.728;4.160;2023-08-01T12:50:49;4.43;;;2.00;;
57635;SDS011;43465;50.728;4.160;2023-08-01T12:53:15;7.28;;;2.30;;
57635;SDS011;43465;50.728;4.160;2023-08-01T12:55:44;6.80;;;2.17;;
57635;SDS011;43465;50.728;4.160;2023-08-01T12:58:10;7.18;;;2.00;;
57635;SDS011;43465;50.728;4.160;2023-08-01T13:00:36;6.70;;;2.05;;
57635;SDS011;43465;50.728;4.160;2023-08-01T13:03:02;6.70;;;2.35;;
57635;SDS011;43465;50.728;4.160;2023-08-01T13:05:28;5.53;;;2.13;;
57635;SDS011;43465;50.728;4.160;2023-08-01T13:07:54;5.63;;;2.10;;
57635;SDS011;43465;50.728;4.160;2023-08-01T13:10:19;7.78;;;2.22;;
57635;SDS011;43465;50.728;4.160;2023-08-01T13:12:45;5.70;;;2.30;;
57635;SDS011;43465;50.728;4.160;2023-08-01T13:15:11;6.85;;;2.10;;
57635;SDS011;43465;50.728;4.160;2023-08-01T13:17:36;7.03;;;2.40;;
57635;SDS011;43465;50.728;4.160;2023-08-01T13:20:03;6.95;;;2.00;;
57635;SDS011;43465;50.728;4.160;2023-08-01T13:22:29;8.35;;;2.45;;
57635;SDS011;43465;50.728;4.160;2023-08-01T13:24:55;6.30;;;2.58;;
57635;SDS011;43465;50.728;4.160;2023-08-01T13:27:20;4.03;;;1.98;;
57635;SDS011;43465;50.728;4.160;2023-08-01T13:29:46;10.80;;;2.15;;
57635;SDS011;43465;50.728;4.160;2023-08-01T13:32:11;10.85;;;2.58;;
57635;SDS011;43465;50.728;4.160;2023-08-01T13:34:37;6.43;;;2.13;;
57635;SDS011;43465;50.728;4.160;2023-08-01T13:37:03;9.23;;;2.33;;
57635;SDS011;43465;50.728;4.160;2023-08-01T13:39:28;7.97;;;2.30;;
57635;SDS011;43465;50.728;4.160;2023-08-01T13:41:54;3.85;;;1.73;;
57635;SDS011;43465;50.728;4.160;2023-08-01T13:44:20;7.40;;;1.80;;
57635;SDS011;43465;50.728;4.160;2023-08-01T13:46:45;3.35;;;1.40;;
57635;SDS011;43465;50.728;4.160;2023-08-01T13:49:11;3.15;;;1.50;;
57635;SDS011;43465;50.728;4.160;2023-08-01T13:51:38;3.10;;;1.27;;
57635;SDS011;43465;50.728;4.160;2023-08-01T13:54:03;5.22;;;1.40;;
57635;SDS011;43465;50.728;4.160;2023-08-01T13:56:29;6.15;;;1.33;;
57635;SDS011;43465;50.728;4.160;2023-08-01T13:58:55;4.55;;;1.40;;
57635;SDS011;43465;50.728;4.160;2023-08-01T14:01:20;6.68;;;1.88;;
57635;SDS011;43465;50.728;4.160;2023-08-01T14:03:46;4.53;;;1.63;;
57635;SDS011;43465;50.728;4.160;2023-08-01T14:06:13;5.57;;;1.85;;
57635;SDS011;43465;50.728;4.160;2023-08-01T14:08:39;5.80;;;1.83;;
57635;SDS011;43465;50.728;4.160;2023-08-01T14:11:07;6.20;;;1.75;;
57635;SDS011;43465;50.728;4.160;2023-08-01T14:13:34;9.35;;;2.10;;
57635;SDS011;43465;50.728;4.160;2023-08-01T14:16:00;7.90;;;2.22;;
57635;SDS011;43465;50.728;4.160;2023-08-01T14:18:27;8.15;;;2.53;;
57635;SDS011;43465;50.728;4.160;2023-08-01T14:20:53;6.72;;;2.33;;
57635;SDS011;43465;50.728;4.160;2023-08-01T14:23:19;9.02;;;2.50;;
57635;SDS011;43465;50.728;4.160;2023-08-01T14:25:45;11.75;;;2.67;;
57635;SDS011;43465;50.728;4.160;2023-08-01T14:28:11;8.48;;;2.50;;
57635;SDS011;43465;50.728;4.160;2023-08-01T14:30:38;11.45;;;1.80;;
57635;SDS011;43465;50.728;4.160;2023-08-01T14:33:05;6.20;;;2.28;;
57635;SDS011;43465;50.728;4.160;2023-08-01T14:35:35;5.38;;;1.95;;
57635;SDS011;43465;50.728;4.160;2023-08-01T14:38:02;9.07;;;2.53;;
57635;SDS011;43465;50.728;4.160;2023-08-01T14:40:28;5.55;;;1.80;;
57635;SDS011;43465;50.728;4.160;2023-08-01T14:42:55;9.02;;;2.15;;
57635;SDS011;43465;50.728;4.160;2023-08-01T14:45:21;9.93;;;2.47;;